Time,TemperatureF,DewpointF,PressureIn,WindDirection,WindDirectionDegrees,WindSpeedMPH,WindSpeedGustMPH,Humidity,HourlyPrecipIn,Conditions,Clouds,dailyrainin,SolarRadiationWatts/m^2,SoftwareType,DateUTC
2013-08-31 00:00:00,80.0,65.0,-100.00,SSW,198,0.0,-999.0,61,0.00,,,0.00,0.000000,,2013-08-31 05:00:00,
2013-08-31 00:43:00,80.0,65.0,-100.00,SSW,198,0.0,-999.0,61,0.00,,,0.00,0.000000,,2013-08-31 05:43:00,
2013-08-31 00:53:00,80.0,65.0,-100.00,SSW,198,0.0,-999.0,61,0.00,,,0.00,0.000000,,2013-08-31 05:53:00,
2013-08-31 01:00:00,79.0,66.0,-100.00,SSW,199,1.0,-999.0,64,0.00,,,0.00,1.000000,,2013-08-31 06:00:00,
2013-08-31 01:42:00,79.0,66.0,-100.00,SSW,199,1.0,-999.0,64,0.00,,,0.00,1.000000,,2013-08-31 06:42:00,
2013-08-31 01:52:00,79.0,66.0,-100.00,SSW,199,1.0,-999.0,64,0.00,,,0.00,1.000000,,2013-08-31 06:52:00,
2013-08-31 02:00:00,77.0,66.0,-100.00,SSW,193,0.0,-999.0,68,0.00,,,0.00,1.000000,,2013-08-31 07:00:00,
2013-08-31 02:42:00,77.0,66.0,-100.00,SSW,193,0.0,-999.0,68,0.00,,,0.00,1.000000,,2013-08-31 07:42:00,
2013-08-31 02:52:00,77.0,66.0,-100.00,SSW,193,0.0,-999.0,68,0.00,,,0.00,1.000000,,2013-08-31 07:52:00,
2013-08-31 03:00:00,76.0,66.0,-100.00,SSW,208,1.0,-999.0,72,0.00,,,0.00,0.000000,,2013-08-31 08:00:00,
2013-08-31 03:42:00,76.0,66.0,-100.00,SSW,208,1.0,-999.0,72,0.00,,,0.00,0.000000,,2013-08-31 08:42:00,
2013-08-31 03:52:00,76.0,66.0,-100.00,SSW,208,1.0,-999.0,72,0.00,,,0.00,0.000000,,2013-08-31 08:52:00,
2013-08-31 04:00:00,76.0,65.0,-100.00,South,188,1.0,-999.0,69,0.00,,,0.00,0.000000,,2013-08-31 09:00:00,
2013-08-31 04:44:00,76.0,65.0,-100.00,South,188,1.0,-999.0,69,0.00,,,0.00,0.000000,,2013-08-31 09:44:00,
2013-08-31 04:53:00,76.0,65.0,-100.00,South,188,1.0,-999.0,69,0.00,,,0.00,0.000000,,2013-08-31 09:53:00,
2013-08-31 05:00:00,76.0,65.0,-100.00,SSE,160,1.0,-999.0,70,0.00,,,0.00,1.000000,,2013-08-31 10:00:00,
2013-08-31 05:43:00,76.0,65.0,-100.00,SSE,160,1.0,-999.0,70,0.00,,,0.00,1.000000,,2013-08-31 10:43:00,
2013-08-31 05:53:00,76.0,65.0,-100.00,SSE,160,1.0,-999.0,70,0.00,,,0.00,1.000000,,2013-08-31 10:53:00,
2013-08-31 06:00:00,75.0,66.0,-100.00,SSE,166,1.0,-999.0,72,0.00,,,0.00,0.000000,,2013-08-31 11:00:00,
2013-08-31 06:42:00,75.0,66.0,-100.00,SSE,166,1.0,-999.0,72,0.00,,,0.00,0.000000,,2013-08-31 11:42:00,
2013-08-31 06:52:00,75.0,66.0,-100.00,SSE,166,1.0,-999.0,72,0.00,,,0.00,0.000000,,2013-08-31 11:52:00,
2013-08-31 07:00:00,73.0,66.0,-100.00,SSE,156,1.0,-999.0,78,0.00,,,0.00,3.000000,,2013-08-31 12:00:00,
2013-08-31 07:42:00,73.0,66.0,-100.00,SSE,156,1.0,-999.0,78,0.00,,,0.00,3.000000,,2013-08-31 12:42:00,
2013-08-31 07:52:00,73.0,66.0,-100.00,SSE,156,1.0,-999.0,78,0.00,,,0.00,3.000000,,2013-08-31 12:52:00,
2013-08-31 08:00:00,74.0,66.0,-100.00,SSE,163,1.0,-999.0,77,0.00,,,0.00,44.000000,,2013-08-31 13:00:00,
2013-08-31 08:42:00,74.0,66.0,-100.00,SSE,163,1.0,-999.0,77,0.00,,,0.00,44.000000,,2013-08-31 13:42:00,
2013-08-31 08:52:00,74.0,66.0,-100.00,SSE,163,1.0,-999.0,77,0.00,,,0.00,44.000000,,2013-08-31 13:52:00,
2013-08-31 09:00:00,84.0,67.0,-100.00,West,270,0.0,-999.0,56,0.00,,,0.00,289.000000,,2013-08-31 14:00:00,
2013-08-31 09:42:00,84.0,67.0,-100.00,West,270,0.0,-999.0,56,0.00,,,0.00,289.000000,,2013-08-31 14:42:00,
2013-08-31 09:52:00,84.0,67.0,-100.00,West,270,0.0,-999.0,56,0.00,,,0.00,289.000000,,2013-08-31 14:52:00,
2013-08-31 10:00:00,86.0,67.0,-100.00,South,177,1.0,-999.0,53,0.00,,,0.00,476.000000,,2013-08-31 15:00:00,
2013-08-31 10:45:00,86.0,67.0,-100.00,South,177,1.0,-999.0,53,0.00,,,0.00,476.000000,,2013-08-31 15:45:00,
2013-08-31 10:55:00,86.0,67.0,-100.00,South,177,1.0,-999.0,53,0.00,,,0.00,476.000000,,2013-08-31 15:55:00,
2013-08-31 11:00:00,90.0,70.0,-100.00,NW,323,0.0,-999.0,53,0.00,,,0.00,635.000000,,2013-08-31 16:00:00,
2013-08-31 11:44:00,90.0,70.0,-100.00,NW,323,0.0,-999.0,53,0.00,,,0.00,635.000000,,2013-08-31 16:44:00,
2013-08-31 11:52:00,90.0,70.0,-100.00,NW,323,0.0,-999.0,53,0.00,,,0.00,635.000000,,2013-08-31 16:52:00,
2013-08-31 12:00:00,90.0,73.0,-100.00,ESE,109,1.0,-999.0,57,0.00,,,0.00,750.000000,,2013-08-31 17:00:00,
2013-08-31 12:43:00,90.0,73.0,-100.00,ESE,109,1.0,-999.0,57,0.00,,,0.00,750.000000,,2013-08-31 17:43:00,
2013-08-31 12:53:00,90.0,73.0,-100.00,ESE,109,1.0,-999.0,57,0.00,,,0.00,750.000000,,2013-08-31 17:53:00,
2013-08-31 13:00:00,93.0,70.0,-100.00,NE,41,0.0,-999.0,47,0.00,,,0.00,805.000000,,2013-08-31 18:00:00,
2013-08-31 13:42:00,93.0,70.0,-100.00,NE,41,0.0,-999.0,47,0.00,,,0.00,805.000000,,2013-08-31 18:42:00,
2013-08-31 13:52:00,93.0,70.0,-100.00,NE,41,0.0,-999.0,47,0.00,,,0.00,805.000000,,2013-08-31 18:52:00,
2013-08-31 14:00:00,99.0,63.0,-100.00,SSW,208,2.0,-999.0,31,0.00,,,0.00,825.000000,,2013-08-31 19:00:00,
2013-08-31 14:42:00,99.0,63.0,-100.00,SSW,208,2.0,-999.0,31,0.00,,,0.00,825.000000,,2013-08-31 19:42:00,
2013-08-31 14:52:00,99.0,63.0,-100.00,SSW,208,2.0,-999.0,31,0.00,,,0.00,825.000000,,2013-08-31 19:52:00,
2013-08-31 15:00:00,90.0,70.0,-100.00,SE,142,1.0,-999.0,53,0.00,,,0.00,122.000000,,2013-08-31 20:00:00,
2013-08-31 15:53:00,90.0,70.0,-100.00,SE,142,1.0,-999.0,53,0.00,,,0.00,122.000000,,2013-08-31 20:53:00,
2013-08-31 17:00:00,92.0,69.0,-100.00,South,184,0.0,-999.0,47,0.00,,,0.04,496.000000,,2013-08-31 22:00:00,
2013-08-31 17:44:00,92.0,69.0,-100.00,South,184,0.0,-999.0,47,0.00,,,0.04,496.000000,,2013-08-31 22:44:00,
2013-08-31 17:53:00,92.0,69.0,-100.00,South,184,0.0,-999.0,47,0.00,,,0.04,496.000000,,2013-08-31 22:53:00,
2013-08-31 18:00:00,92.0,68.0,-100.00,South,175,0.0,-999.0,45,0.00,,,0.04,102.000000,,2013-08-31 23:00:00,
2013-08-31 18:42:00,92.0,68.0,-100.00,South,175,0.0,-999.0,45,0.00,,,0.04,102.000000,,2013-08-31 23:42:00,
2013-08-31 18:52:00,92.0,68.0,-100.00,South,175,0.0,-999.0,45,0.00,,,0.04,102.000000,,2013-08-31 23:52:00,
2013-08-31 19:00:00,90.0,71.0,-100.00,NNW,348,0.0,-999.0,55,0.00,,,0.04,41.000000,,2013-09-01 00:00:00,
2013-08-31 19:42:00,90.0,71.0,-100.00,NNW,348,0.0,-999.0,55,0.00,,,0.04,41.000000,,2013-09-01 00:42:00,
2013-08-31 19:52:00,90.0,71.0,-100.00,NNW,348,0.0,-999.0,55,0.00,,,0.04,41.000000,,2013-09-01 00:52:00,
2013-08-31 21:00:00,82.0,71.0,-100.00,SSE,155,1.0,-999.0,70,0.00,,,0.04,0.000000,,2013-09-01 02:00:00,
2013-08-31 21:43:00,82.0,71.0,-100.00,SSE,155,1.0,-999.0,70,0.00,,,0.04,0.000000,,2013-09-01 02:43:00,
2013-08-31 21:53:00,82.0,71.0,-100.00,SSE,155,1.0,-999.0,70,0.00,,,0.04,0.000000,,2013-09-01 02:53:00,
2013-08-31 22:00:00,-999.0,-99.9,-100.00,SSE,150,1.0,-999.0,-999,-99.99,,,-99.99,1.000000,,2013-09-01 03:00:00,
2013-08-31 22:44:00,80.0,71.0,-100.00,SSE,150,1.0,-999.0,73,0.00,,,0.04,1.000000,,2013-09-01 03:44:00,
2013-08-31 22:54:00,80.0,71.0,-100.00,SSE,150,1.0,-999.0,73,0.00,,,0.04,1.000000,,2013-09-01 03:54:00,
2013-08-31 23:00:00,78.0,70.0,-100.00,SE,144,2.0,-999.0,77,0.00,,,0.04,1.000000,,2013-09-01 04:00:00,
2013-08-31 23:43:00,78.0,70.0,-100.00,SE,144,2.0,-999.0,77,0.00,,,0.04,1.000000,,2013-09-01 04:43:00,
2013-08-31 23:54:00,78.0,70.0,-100.00,SE,144,2.0,-999.0,77,0.00,,,0.04,1.000000,,2013-09-01 04:54:00,